createdAt,value
2022-09-24T00:01:58.409Z,84.22
2022-09-24T00:04:26.518Z,84.14
2022-09-24T00:06:53.580Z,83.10
2022-09-24T00:09:22.203Z,82.54
2022-09-24T00:11:49.979Z,80.78
2022-09-24T00:14:17.644Z,82.44
2022-09-24T00:16:45.232Z,83.52
2022-09-24T00:19:13.559Z,83.57
2022-09-24T00:21:41.329Z,83.14
2022-09-24T00:24:14.619Z,82.74
2022-09-24T00:26:41.185Z,82.16
2022-09-24T00:29:13.319Z,83.74
2022-09-24T00:31:40.237Z,85.18
2022-09-24T00:34:07.217Z,86.30
2022-09-24T00:36:33.941Z,85.01
2022-09-24T00:39:01.096Z,84.54
2022-09-24T00:41:31.135Z,84.11
2022-09-24T00:43:58.400Z,83.33
2022-09-24T00:46:34.810Z,85.11
2022-09-24T00:49:06.205Z,84.08
2022-09-24T00:51:33.740Z,84.57
2022-09-24T00:54:07.038Z,84.92
2022-09-24T00:56:36.994Z,84.53
2022-09-24T00:59:06.670Z,84.90
2022-09-24T01:01:33.306Z,83.77
2022-09-24T01:04:01.530Z,83.41
2022-09-24T01:06:28.272Z,83.73
2022-09-24T01:08:57.006Z,84.42
2022-09-24T01:11:56.100Z,82.71
2022-09-24T01:14:45.809Z,82.20
2022-09-24T01:17:21.465Z,82.53
2022-09-24T01:19:59.313Z,82.98
2022-09-24T01:22:28.747Z,84.31
2022-09-24T01:25:17.830Z,83.54
2022-09-24T01:28:11.938Z,83.01
2022-09-24T01:30:42.177Z,83.57
2022-09-24T01:33:16.234Z,84.18
2022-09-24T01:35:58.081Z,84.54
2022-09-24T01:38:31.356Z,85.69
2022-09-24T01:41:01.047Z,85.95
2022-09-24T01:43:28.150Z,85.88
2022-09-24T01:46:01.316Z,85.33
2022-09-24T01:48:29.379Z,83.07
2022-09-24T01:51:00.631Z,82.39
2022-09-24T01:53:35.452Z,84.23
2022-09-24T01:56:16.548Z,85.65
2022-09-24T01:58:54.440Z,84.93
2022-09-24T02:01:34.598Z,85.11
2022-09-24T02:04:09.240Z,85.37
2022-09-24T02:07:05.464Z,84.31
2022-09-24T02:09:35.648Z,84.19
2022-09-24T02:12:16.182Z,84.36
2022-09-24T02:14:48.281Z,85.28
2022-09-24T02:17:15.251Z,84.34
2022-09-24T02:19:42.383Z,84.33
2022-09-24T02:22:11.807Z,84.84
2022-09-24T02:24:55.477Z,85.33
2022-09-24T02:27:25.526Z,84.43
2022-09-24T02:29:52.189Z,84.89
2022-09-24T02:32:22.032Z,83.57
2022-09-24T02:34:53.129Z,84.00
2022-09-24T02:37:24.080Z,84.61
2022-09-24T02:39:51.432Z,84.06
2022-09-24T02:42:20.236Z,83.77
2022-09-24T02:44:46.828Z,81.83
2022-09-24T02:47:14.372Z,82.10
2022-09-24T02:49:40.955Z,82.48
2022-09-24T02:52:07.536Z,84.35
2022-09-24T02:54:34.150Z,84.96
2022-09-24T02:57:00.755Z,84.67
2022-09-24T02:59:27.339Z,85.21
2022-09-24T03:01:54.065Z,85.52
2022-09-24T03:04:20.735Z,86.87
2022-09-24T03:06:47.355Z,85.38
2022-09-24T03:09:14.252Z,83.25
2022-09-24T03:11:40.869Z,83.61
2022-09-24T03:14:07.651Z,83.43
2022-09-24T03:16:34.415Z,82.14
2022-09-24T03:19:01.053Z,81.60
2022-09-24T03:21:27.725Z,83.03
2022-09-24T03:23:54.327Z,84.19
2022-09-24T03:26:21.042Z,84.25
2022-09-24T03:28:47.835Z,83.99
2022-09-24T03:31:14.615Z,84.00
2022-09-24T03:33:43.890Z,85.32
2022-09-24T03:36:10.578Z,84.51
2022-09-24T03:38:38.290Z,83.86
2022-09-24T03:41:06.285Z,87.38
2022-09-24T03:43:33.004Z,86.94
2022-09-24T03:45:59.902Z,85.74
2022-09-24T03:48:27.320Z,86.27
2022-09-24T03:50:54.199Z,86.12
2022-09-24T03:53:21.011Z,84.81
2022-09-24T03:55:56.618Z,83.48
2022-09-24T03:58:24.067Z,85.29
2022-09-24T04:00:55.125Z,85.55
2022-09-24T04:03:22.698Z,84.09
2022-09-24T04:05:50.026Z,83.91
2022-09-24T04:08:17.524Z,84.64
2022-09-24T04:10:45.597Z,87.78
2022-09-24T04:13:12.587Z,86.05
2022-09-24T04:15:39.180Z,85.64
2022-09-24T04:18:06.439Z,84.46
2022-09-24T04:20:33.063Z,84.70
2022-09-24T04:22:59.724Z,85.05
2022-09-24T04:25:28.736Z,83.77
2022-09-24T04:28:01.011Z,84.25
2022-09-24T04:30:29.381Z,84.58
2022-09-24T04:32:56.172Z,83.58
2022-09-24T04:35:23.691Z,85.81
2022-09-24T04:37:50.374Z,86.16
2022-09-24T04:40:17.601Z,84.84
2022-09-24T04:42:45.029Z,84.22
2022-09-24T04:45:13.435Z,84.21
2022-09-24T04:47:40.424Z,83.66
2022-09-24T04:50:09.436Z,81.86
2022-09-24T04:52:36.023Z,82.05
2022-09-24T04:55:02.933Z,83.96
2022-09-24T04:57:30.294Z,84.16
2022-09-24T04:59:56.871Z,85.73
2022-09-24T05:02:23.618Z,87.69
2022-09-24T05:04:50.227Z,87.29
2022-09-24T05:07:16.823Z,86.04
2022-09-24T05:09:43.418Z,87.01
2022-09-24T05:12:09.994Z,87.73
2022-09-24T05:14:36.639Z,87.72
2022-09-24T05:17:03.229Z,87.85
2022-09-24T05:19:29.834Z,87.74
2022-09-24T05:21:56.570Z,89.54
2022-09-24T05:24:23.151Z,88.90
2022-09-24T05:26:49.749Z,88.70
2022-09-24T05:29:16.341Z,88.45
2022-09-24T05:31:42.979Z,87.53
2022-09-24T05:34:09.587Z,89.44
2022-09-24T05:36:36.269Z,90.72
2022-09-24T05:39:03.677Z,90.95
2022-09-24T05:41:30.262Z,91.98
2022-09-24T05:43:56.873Z,92.52
2022-09-24T05:46:23.521Z,92.02
2022-09-24T05:48:50.191Z,89.35
2022-09-24T05:51:16.808Z,89.08
2022-09-24T05:53:43.478Z,88.64
2022-09-24T05:56:10.199Z,89.14
2022-09-24T05:58:36.980Z,89.02
2022-09-24T06:01:03.818Z,88.10
2022-09-24T06:03:30.490Z,88.38
2022-09-24T06:05:58.008Z,86.62
2022-09-24T06:08:24.590Z,88.40
2022-09-24T06:10:51.184Z,90.12
2022-09-24T06:13:19.359Z,89.89
2022-09-24T06:15:46.094Z,91.36
2022-09-24T06:18:12.847Z,90.48
2022-09-24T06:20:39.412Z,88.74
2022-09-24T06:23:05.968Z,90.17
2022-09-24T06:25:32.580Z,90.73
2022-09-24T06:28:01.297Z,92.06
2022-09-24T06:30:30.582Z,92.29
2022-09-24T06:33:04.771Z,92.38
2022-09-24T06:35:37.032Z,90.27
2022-09-24T06:38:04.871Z,87.88
2022-09-24T06:40:36.487Z,85.08
2022-09-24T06:43:04.235Z,87.61
2022-09-24T06:45:30.943Z,86.47
2022-09-24T06:48:00.050Z,86.82
2022-09-24T06:50:29.200Z,83.58
2022-09-24T06:52:56.891Z,84.01
2022-09-24T06:55:23.452Z,84.68
2022-09-24T06:57:50.260Z,85.03
2022-09-24T07:00:17.206Z,82.99
2022-09-24T07:02:43.851Z,85.02
2022-09-24T07:05:10.658Z,86.76
2022-09-24T07:07:37.239Z,90.22
2022-09-24T07:10:07.727Z,93.28
2022-09-24T07:12:35.549Z,92.98
2022-09-24T07:15:02.452Z,89.37
2022-09-24T07:17:33.801Z,93.42
2022-09-24T07:20:01.144Z,92.58
2022-09-24T07:22:28.255Z,91.79
2022-09-24T07:24:54.835Z,85.66
2022-09-24T07:27:21.793Z,83.98
2022-09-24T07:29:49.391Z,83.61
2022-09-24T07:32:16.931Z,82.88
2022-09-24T07:34:43.523Z,79.23
2022-09-24T07:37:10.107Z,76.05
2022-09-24T07:39:36.715Z,77.29
2022-09-24T07:42:03.302Z,75.83
2022-09-24T07:44:29.896Z,77.21
2022-09-24T07:46:56.587Z,77.41
2022-09-24T07:49:23.431Z,78.44
2022-09-24T07:51:50.029Z,80.17
2022-09-24T07:54:17.472Z,79.14
2022-09-24T07:56:44.221Z,74.60
2022-09-24T07:59:10.885Z,76.39
2022-09-24T08:01:37.750Z,75.58
2022-09-24T08:04:04.793Z,77.24
2022-09-24T08:06:37.143Z,79.41
2022-09-24T08:09:05.144Z,77.25
2022-09-24T08:11:31.833Z,72.07
2022-09-24T08:13:58.438Z,75.74
2022-09-24T08:16:25.136Z,75.61
2022-09-24T08:18:51.829Z,72.91
2022-09-24T08:21:18.409Z,73.61
2022-09-24T08:23:45.088Z,72.31
2022-09-24T08:26:13.231Z,73.96
2022-09-24T08:28:40.867Z,72.28
2022-09-24T08:31:11.626Z,69.50
2022-09-24T08:33:39.033Z,71.03
2022-09-24T08:36:09.082Z,71.99
2022-09-24T08:38:35.876Z,69.54
2022-09-24T08:41:17.026Z,73.84
2022-09-24T08:43:46.872Z,66.40
2022-09-24T08:46:37.527Z,69.54
2022-09-24T08:49:08.002Z,65.00
2022-09-24T08:51:44.114Z,65.57
2022-09-24T08:54:14.194Z,67.24
2022-09-24T08:56:45.760Z,65.10
2022-09-24T08:59:26.111Z,61.85
2022-09-24T09:02:13.833Z,61.04
2022-09-24T09:04:51.957Z,63.96
2022-09-24T09:07:25.956Z,60.14
2022-09-24T09:10:12.043Z,60.70
2022-09-24T09:12:43.017Z,59.98
2022-09-24T09:15:22.874Z,61.94
2022-09-24T09:17:54.155Z,59.84
2022-09-24T09:20:31.607Z,61.81
2022-09-24T09:23:04.478Z,59.91
2022-09-24T09:25:35.907Z,54.00
2022-09-24T09:28:14.051Z,56.14
2022-09-24T09:31:10.467Z,58.56
2022-09-24T09:33:46.138Z,57.71
2022-09-24T09:36:35.748Z,54.54
2022-09-24T09:39:08.354Z,59.53
2022-09-24T09:41:43.089Z,58.15
2022-09-24T09:44:18.569Z,54.70
2022-09-24T09:47:00.409Z,53.20
2022-09-24T09:49:33.821Z,55.89
2022-09-24T09:52:05.966Z,55.92
2022-09-24T09:54:39.997Z,53.86
2022-09-24T09:57:12.300Z,54.15
2022-09-24T09:59:39.005Z,51.03
2022-09-24T10:02:10.664Z,51.79
2022-09-24T10:04:40.961Z,52.85
2022-09-24T10:07:11.412Z,50.59
2022-09-24T10:09:39.465Z,53.06
2022-09-24T10:12:07.517Z,53.33
2022-09-24T10:14:34.516Z,51.29
2022-09-24T10:17:02.180Z,50.12
2022-09-24T10:19:28.869Z,48.46
2022-09-24T10:21:56.944Z,49.18
2022-09-24T10:24:25.693Z,51.27
2022-09-24T10:26:53.284Z,49.02
2022-09-24T10:29:25.436Z,49.21
2022-09-24T10:31:52.245Z,47.84
2022-09-24T10:34:29.058Z,48.19
2022-09-24T10:37:21.589Z,50.89
2022-09-24T10:40:01.465Z,47.25
2022-09-24T10:42:30.180Z,49.43
2022-09-24T10:45:00.557Z,48.36
2022-09-24T10:47:35.119Z,47.19
2022-09-24T10:50:20.488Z,45.79
2022-09-24T10:52:51.527Z,44.99
2022-09-24T10:55:33.110Z,44.95
2022-09-24T10:58:01.977Z,44.00
2022-09-24T11:00:41.047Z,43.86
2022-09-24T11:03:41.778Z,46.74
2022-09-24T11:06:35.726Z,46.44
2022-09-24T11:09:25.073Z,43.41
2022-09-24T11:12:28.587Z,44.27
2022-09-24T11:15:33.716Z,45.67
2022-09-24T11:18:26.246Z,43.46
2022-09-24T11:21:01.424Z,45.30
2022-09-24T11:23:43.219Z,44.43
2022-09-24T11:26:27.303Z,43.59
2022-09-24T11:29:12.756Z,42.88
2022-09-24T11:31:53.628Z,41.46
2022-09-24T11:34:51.092Z,42.74
2022-09-24T11:37:30.481Z,42.71
2022-09-24T11:40:13.243Z,44.13
2022-09-24T11:42:58.267Z,44.29
2022-09-24T11:45:40.145Z,43.75
2022-09-24T11:48:30.916Z,42.32
2022-09-24T11:51:28.408Z,41.93
2022-09-24T11:54:31.524Z,41.75
2022-09-24T11:57:08.395Z,41.94
2022-09-24T11:59:34.926Z,42.97
2022-09-24T12:02:15.584Z,43.09
2022-09-24T12:05:12.913Z,41.71
2022-09-24T12:07:53.467Z,42.98
2022-09-24T12:10:53.509Z,44.44
2022-09-24T12:13:25.140Z,43.19
2022-09-24T12:15:56.723Z,42.34
2022-09-24T12:18:27.620Z,42.32
2022-09-24T12:21:02.647Z,43.68
2022-09-24T12:23:32.869Z,44.31
2022-09-24T12:26:03.461Z,42.97
2022-09-24T12:28:57.268Z,44.77
2022-09-24T12:31:44.406Z,45.06
2022-09-24T12:34:23.894Z,44.78
2022-09-24T12:36:56.764Z,46.69
2022-09-24T12:39:30.748Z,46.37
2022-09-24T12:42:05.874Z,44.86
2022-09-24T12:44:48.679Z,46.11
2022-09-24T12:47:25.262Z,44.69
2022-09-24T12:49:58.574Z,44.09
2022-09-24T12:52:37.254Z,46.10
2022-09-24T12:55:04.731Z,45.99
2022-09-24T12:57:41.892Z,44.93
2022-09-24T13:00:38.521Z,44.99
2022-09-24T13:03:07.561Z,46.97
2022-09-24T13:05:47.294Z,45.01
2022-09-24T13:08:13.808Z,46.02
2022-09-24T13:10:40.451Z,46.64
2022-09-24T13:13:25.494Z,46.87
2022-09-24T13:16:21.447Z,45.58
2022-09-24T13:18:57.173Z,45.37
2022-09-24T13:21:29.303Z,47.04
2022-09-24T13:23:56.738Z,47.85
2022-09-24T13:26:29.216Z,45.44
2022-09-24T13:28:59.147Z,46.57
2022-09-24T13:31:33.463Z,46.29
2022-09-24T13:34:22.789Z,45.13
2022-09-24T13:37:19.182Z,45.79
2022-09-24T13:39:51.168Z,43.94
2022-09-24T13:42:31.469Z,43.15
2022-09-24T13:45:05.098Z,45.44
2022-09-24T13:47:51.408Z,45.49
2022-09-24T13:50:19.600Z,46.22
2022-09-24T13:52:58.339Z,45.91
2022-09-24T13:55:33.606Z,45.65
2022-09-24T13:58:00.279Z,45.91
2022-09-24T14:00:28.658Z,46.50
2022-09-24T14:03:18.164Z,44.70
2022-09-24T14:05:44.985Z,45.64
2022-09-24T14:08:17.270Z,46.80
2022-09-24T14:10:44.352Z,46.07
2022-09-24T14:13:23.679Z,46.19
2022-09-24T14:16:08.096Z,45.87
2022-09-24T14:18:35.133Z,46.89
2022-09-24T14:21:08.465Z,46.48
2022-09-24T14:23:51.467Z,46.49
2022-09-24T14:26:29.324Z,46.41
2022-09-24T14:28:59.006Z,46.03
2022-09-24T14:31:25.986Z,48.93
2022-09-24T14:33:52.903Z,48.31
2022-09-24T14:36:20.614Z,47.83
2022-09-24T14:39:07.502Z,48.05
2022-09-24T14:41:36.356Z,46.73
2022-09-24T14:44:20.601Z,46.42
2022-09-24T14:46:56.822Z,47.34
2022-09-24T14:49:30.181Z,45.91
2022-09-24T14:52:02.608Z,49.23
2022-09-24T14:54:36.108Z,47.81
2022-09-24T14:57:37.915Z,48.14
2022-09-24T15:00:26.405Z,47.56
2022-09-24T15:03:11.927Z,48.93
2022-09-24T15:05:38.669Z,47.37
2022-09-24T15:08:23.359Z,46.79
2022-09-24T15:11:01.847Z,47.92
2022-09-24T15:13:37.979Z,48.87
2022-09-24T15:16:27.918Z,49.15
2022-09-24T15:19:17.750Z,48.31
2022-09-24T15:21:44.653Z,48.33
2022-09-24T15:24:11.294Z,48.51
2022-09-24T15:26:42.463Z,50.27
2022-09-24T15:29:18.521Z,48.28
2022-09-24T15:31:45.655Z,49.72
2022-09-24T15:34:15.443Z,51.02
2022-09-24T15:36:49.557Z,50.26
2022-09-24T15:39:19.267Z,50.79
2022-09-24T15:41:45.891Z,51.52
2022-09-24T15:44:27.143Z,50.12
2022-09-24T15:46:56.741Z,50.79
2022-09-24T15:49:23.852Z,51.42
2022-09-24T15:51:55.003Z,49.88
2022-09-24T15:54:21.612Z,50.37
2022-09-24T15:56:48.351Z,51.18
2022-09-24T15:59:15.250Z,49.51
2022-09-24T16:01:42.317Z,50.61
2022-09-24T16:04:12.509Z,51.77
2022-09-24T16:06:39.163Z,52.42
2022-09-24T16:09:05.904Z,52.71
2022-09-24T16:11:32.832Z,52.36
2022-09-24T16:13:59.394Z,51.94
2022-09-24T16:16:26.069Z,51.50
2022-09-24T16:18:53.426Z,52.92
2022-09-24T16:21:20.137Z,53.74
2022-09-24T16:23:46.696Z,56.21
2022-09-24T16:26:13.268Z,57.26
2022-09-24T16:28:39.929Z,57.66
2022-09-24T16:31:07.099Z,56.96
2022-09-24T16:33:38.479Z,56.76
2022-09-24T16:36:06.935Z,58.44
2022-09-24T16:38:43.860Z,57.66
2022-09-24T16:41:10.397Z,58.05
2022-09-24T16:43:38.298Z,57.17
2022-09-24T16:46:07.556Z,57.77
2022-09-24T16:48:34.258Z,57.85
2022-09-24T16:51:11.358Z,58.20
2022-09-24T16:53:38.626Z,58.00
2022-09-24T16:56:16.137Z,57.54
2022-09-24T16:58:44.993Z,58.14
2022-09-24T17:01:13.831Z,58.27
2022-09-24T17:03:40.704Z,60.18
2022-09-24T17:06:08.300Z,59.54
2022-09-24T17:08:36.258Z,59.49
2022-09-24T17:11:02.827Z,58.77
2022-09-24T17:13:29.461Z,59.32
2022-09-24T17:16:03.816Z,58.82
2022-09-24T17:18:30.423Z,60.94
2022-09-24T17:21:06.282Z,59.86
2022-09-24T17:23:33.652Z,59.47
2022-09-24T17:26:07.172Z,59.31
2022-09-24T17:28:35.414Z,60.46
2022-09-24T17:31:02.631Z,60.14
2022-09-24T17:33:42.756Z,60.79
2022-09-24T17:36:12.645Z,59.61
2022-09-24T17:38:39.346Z,60.46
2022-09-24T17:41:11.198Z,60.07
2022-09-24T17:43:38.727Z,61.11
2022-09-24T17:46:14.115Z,61.75
2022-09-24T17:48:46.748Z,61.11
2022-09-24T17:51:16.536Z,61.30
2022-09-24T17:53:43.227Z,61.65
2022-09-24T17:56:11.750Z,60.41
2022-09-24T17:58:39.876Z,61.56
2022-09-24T18:01:09.206Z,60.55
2022-09-24T18:03:35.943Z,60.87
2022-09-24T18:06:05.548Z,60.46
2022-09-24T18:08:32.577Z,60.59
2022-09-24T18:11:04.683Z,61.69
2022-09-24T18:13:31.268Z,61.54
2022-09-24T18:16:02.478Z,60.25
2022-09-24T18:18:29.083Z,62.34
2022-09-24T18:20:59.180Z,61.47
2022-09-24T18:23:27.220Z,61.45
2022-09-24T18:25:53.976Z,61.15
2022-09-24T18:28:20.531Z,61.63
2022-09-24T18:30:47.255Z,61.22
2022-09-24T18:33:13.877Z,60.87
2022-09-24T18:35:40.438Z,60.62
2022-09-24T18:38:07.044Z,60.97
2022-09-24T18:40:33.738Z,60.37
2022-09-24T18:43:00.339Z,61.54
2022-09-24T18:45:27.044Z,61.16
2022-09-24T18:47:53.630Z,60.87
2022-09-24T18:50:20.216Z,62.51
2022-09-24T18:52:46.806Z,60.55
2022-09-24T18:55:13.384Z,62.11
2022-09-24T18:57:39.990Z,61.47
2022-09-24T19:00:07.560Z,61.41
2022-09-24T19:02:34.227Z,62.83
2022-09-24T19:05:00.946Z,62.71
2022-09-24T19:07:27.531Z,62.18
2022-09-24T19:09:54.124Z,62.25
2022-09-24T19:12:20.799Z,63.96
2022-09-24T19:14:47.354Z,62.89
2022-09-24T19:17:14.067Z,63.08
2022-09-24T19:19:40.715Z,63.52
2022-09-24T19:22:07.323Z,63.22
2022-09-24T19:24:33.907Z,63.26
2022-09-24T19:27:00.565Z,62.92
2022-09-24T19:29:27.131Z,62.13
2022-09-24T19:31:53.716Z,61.98
2022-09-24T19:34:20.361Z,62.76
2022-09-24T19:36:46.932Z,62.36
2022-09-24T19:39:15.739Z,63.27
2022-09-24T19:41:43.254Z,63.70
2022-09-24T19:44:10.398Z,62.63
2022-09-24T19:46:37.739Z,63.69
2022-09-24T19:49:04.333Z,63.76
2022-09-24T19:51:33.424Z,62.92
2022-09-24T19:54:03.453Z,63.10
2022-09-24T19:56:30.757Z,62.48
2022-09-24T19:58:59.387Z,62.37
2022-09-24T20:01:28.685Z,62.82
2022-09-24T20:03:55.913Z,64.51
2022-09-24T20:06:24.952Z,64.24
2022-09-24T20:08:51.619Z,64.91
2022-09-24T20:11:21.207Z,64.06
2022-09-24T20:13:48.889Z,65.02
2022-09-24T20:16:18.262Z,63.49
2022-09-24T20:18:49.505Z,63.22
2022-09-24T20:21:18.183Z,63.91
2022-09-24T20:23:48.806Z,64.81
2022-09-24T20:26:16.939Z,64.23
2022-09-24T20:28:43.579Z,64.68
2022-09-24T20:31:11.745Z,63.72
2022-09-24T20:33:38.979Z,64.34
2022-09-24T20:36:14.743Z,64.97
2022-09-24T20:38:46.060Z,66.25
2022-09-24T20:41:18.179Z,65.82
2022-09-24T20:43:45.121Z,64.90
2022-09-24T20:46:20.195Z,64.56
2022-09-24T20:48:47.123Z,64.61
2022-09-24T20:51:16.012Z,64.41
2022-09-24T20:53:42.613Z,65.67
2022-09-24T20:56:09.652Z,64.77
2022-09-24T20:58:37.663Z,66.20
2022-09-24T21:01:04.394Z,65.37
2022-09-24T21:03:43.959Z,66.17
2022-09-24T21:06:12.633Z,66.27
2022-09-24T21:08:42.052Z,66.47
2022-09-24T21:11:11.104Z,67.51
2022-09-24T21:13:42.703Z,66.49
2022-09-24T21:16:09.436Z,66.51
2022-09-24T21:18:40.192Z,66.45
2022-09-24T21:21:09.946Z,66.73
2022-09-24T21:23:36.623Z,66.42
2022-09-24T21:26:18.141Z,66.06
2022-09-24T21:28:46.248Z,66.50
2022-09-24T21:31:14.387Z,67.18
2022-09-24T21:33:45.848Z,66.84
2022-09-24T21:36:13.111Z,67.04
2022-09-24T21:38:39.682Z,67.96
2022-09-24T21:41:06.249Z,67.76
2022-09-24T21:43:35.031Z,68.15
2022-09-24T21:46:05.383Z,67.47
2022-09-24T21:48:33.572Z,67.66
2022-09-24T21:51:07.282Z,68.02
2022-09-24T21:53:34.615Z,68.04
2022-09-24T21:56:02.538Z,68.02
2022-09-24T21:58:30.208Z,67.43
2022-09-24T22:00:57.588Z,68.90
2022-09-24T22:03:24.180Z,69.11
2022-09-24T22:05:50.849Z,69.03
2022-09-24T22:08:17.399Z,69.39
2022-09-24T22:10:44.038Z,69.40
2022-09-24T22:13:11.703Z,67.99
2022-09-24T22:15:38.305Z,69.30
2022-09-24T22:18:04.994Z,70.06
2022-09-24T22:20:31.621Z,70.22
2022-09-24T22:22:58.182Z,70.08
2022-09-24T22:25:24.754Z,69.33
2022-09-24T22:27:52.631Z,68.46
2022-09-24T22:30:19.195Z,70.90
2022-09-24T22:32:45.775Z,70.66
2022-09-24T22:35:12.490Z,70.95
2022-09-24T22:37:39.071Z,69.72
2022-09-24T22:40:06.049Z,70.65
2022-09-24T22:42:32.643Z,70.54
2022-09-24T22:44:59.238Z,70.90
2022-09-24T22:47:25.849Z,70.05
2022-09-24T22:49:52.446Z,70.27
2022-09-24T22:52:19.028Z,69.51
2022-09-24T22:54:45.667Z,69.41
2022-09-24T22:57:12.254Z,70.91
2022-09-24T22:59:38.846Z,70.95
2022-09-24T23:02:08.270Z,70.10
2022-09-24T23:04:39.054Z,71.02
2022-09-24T23:07:05.806Z,71.38
2022-09-24T23:09:32.390Z,70.83
2022-09-24T23:11:58.940Z,71.23
2022-09-24T23:14:25.607Z,70.56
2022-09-24T23:16:52.303Z,70.87
2022-09-24T23:19:20.192Z,69.83
2022-09-24T23:21:47.374Z,68.79
2022-09-24T23:24:19.774Z,71.25
2022-09-24T23:26:47.832Z,70.97
2022-09-24T23:29:15.268Z,71.91
2022-09-24T23:31:41.857Z,71.22
2022-09-24T23:34:08.450Z,71.98
2022-09-24T23:36:35.903Z,71.48
2022-09-24T23:39:04.252Z,72.55
2022-09-24T23:41:30.976Z,71.85
2022-09-24T23:43:58.293Z,71.60
2022-09-24T23:46:24.973Z,71.82
2022-09-24T23:48:51.580Z,72.55
2022-09-24T23:51:18.152Z,71.83
2022-09-24T23:53:44.766Z,72.62
2022-09-24T23:56:12.400Z,73.42
2022-09-24T23:58:39.740Z,73.31
